KFBG

Details ICAO KFBG
Name Simmons AAF
Region United States
Timezone America/New_York (UTC-4.0)
Plans Departing 0
Arriving 1
Stats Elevation 242 ft / 74 m (AMSL)
Location 35.131882° -78.936521°
Runways 1
Magnetic Variation 8.979° W
Sunrise 2018-05-25 10:07:00 UTC / 2018-05-25 06:07:00 Local
Sunset 2018-05-26 00:21:17 UTC / 2018-05-25 20:21:17 Local
Advertisement - Login to hide

Runways

ID Width Length Bearing (true) Bearing (mag) Surface Threshold Offset Overrun Length
09 100 ft / 30 m 4,645 ft / 1,416 m 85.91° 94.89° Asphalt 1,050 ft / 320 m 0 ft / 0 m
27 100 ft / 30 m 4,645 ft / 1,416 m 265.91° 274.89° Asphalt 0 ft / 0 m 0 ft / 0 m

Map

Weather


0- 5 10 15 20 25 30 35+ Temperature / ° C

Clouds and Precipitation
Forecast for 2018-05-25 12:00 UTC. Updated 6 hours ago

Ground ~20,000 ft ~40,000 ft Winds

METAR

KFBG 251632Z AUTO 17004KT 10SM SCT027 SCT041 BKN070 27/20 A3008 RMK AO2 SLP187 $

TAF

TAF KFBG 250900Z 2509/2615 VRB06KT 9000 BR SCT010 BKN020 QNH3008INS BECMG 2512/2513 14006KT 9999 NSW SCT030 QNH2998INS BECMG 2520/2521 16009KT 9999 VCSH BKN030 QNH2996INS BECMG 2523/2524 17006KT 9999 NSW SCT015 BKN030 QNH2996INS BECMG 2607/2608 18006KT 8000 BR BKN008 QNH2997INS BECMG 2614/2615 18010G15KT 9999 NSW SCT025 BKN050 QNH3000INS TX29/2521Z TN18/2510Z

Frequencies

Ground 121.90 MHz GND/CLNC DEL
Approach 133.00 MHz FAYETTEVILLE APP/DEP
Tower 125.90 MHz TWR
Warning: Do not use this data for real-world aviation or navigation. No guarantee of current accuracy is given.